sensor_id;sensor_type;location;lat;lon;timestamp;P1;durP1;ratioP1;P2;durP2;ratioP2
57599;SDS011;43426;43.594;24.334;2023-07-13T00:00:17;16.52;;;11.50;;
57599;SDS011;43426;43.594;24.334;2023-07-13T00:02:43;14.02;;;11.73;;
57599;SDS011;43426;43.594;24.334;2023-07-13T00:05:14;13.60;;;11.85;;
57599;SDS011;43426;43.594;24.334;2023-07-13T00:07:42;13.35;;;10.80;;
57599;SDS011;43426;43.594;24.334;2023-07-13T00:10:11;16.20;;;11.80;;
57599;SDS011;43426;43.594;24.334;2023-07-13T00:12:37;19.23;;;12.60;;
57599;SDS011;43426;43.594;24.334;2023-07-13T00:15:07;14.32;;;11.40;;
57599;SDS011;43426;43.594;24.334;2023-07-13T00:17:37;14.75;;;12.63;;
57599;SDS011;43426;43.594;24.334;2023-07-13T00:20:04;13.38;;;11.80;;
57599;SDS011;43426;43.594;24.334;2023-07-13T00:22:30;20.30;;;12.63;;
57599;SDS011;43426;43.594;24.334;2023-07-13T00:24:58;15.30;;;12.73;;
57599;SDS011;43426;43.594;24.334;2023-07-13T00:27:24;14.65;;;11.60;;
57599;SDS011;43426;43.594;24.334;2023-07-13T00:29:51;18.50;;;12.85;;
57599;SDS011;43426;43.594;24.334;2023-07-13T00:32:18;13.73;;;12.43;;
57599;SDS011;43426;43.594;24.334;2023-07-13T00:34:43;16.35;;;12.18;;
57599;SDS011;43426;43.594;24.334;2023-07-13T00:37:13;15.02;;;11.98;;
57599;SDS011;43426;43.594;24.334;2023-07-13T00:39:40;12.70;;;11.48;;
57599;SDS011;43426;43.594;24.334;2023-07-13T00:42:07;13.70;;;12.35;;
57599;SDS011;43426;43.594;24.334;2023-07-13T00:44:36;13.30;;;11.77;;
57599;SDS011;43426;43.594;24.334;2023-07-13T00:47:02;15.15;;;12.38;;
57599;SDS011;43426;43.594;24.334;2023-07-13T00:49:29;17.38;;;12.95;;
57599;SDS011;43426;43.594;24.334;2023-07-13T00:52:06;16.52;;;13.82;;
57599;SDS011;43426;43.594;24.334;2023-07-13T00:54:39;15.80;;;12.57;;
57599;SDS011;43426;43.594;24.334;2023-07-13T00:57:11;14.57;;;13.25;;
57599;SDS011;43426;43.594;24.334;2023-07-13T00:59:47;25.10;;;14.15;;
57599;SDS011;43426;43.594;24.334;2023-07-13T01:02:16;15.65;;;13.90;;
57599;SDS011;43426;43.594;24.334;2023-07-13T01:04:44;20.15;;;13.30;;
57599;SDS011;43426;43.594;24.334;2023-07-13T01:07:10;19.30;;;12.38;;
57599;SDS011;43426;43.594;24.334;2023-07-13T01:09:37;13.93;;;12.50;;
57599;SDS011;43426;43.594;24.334;2023-07-13T01:12:05;15.25;;;12.50;;
57599;SDS011;43426;43.594;24.334;2023-07-13T01:14:30;14.68;;;13.00;;
57599;SDS011;43426;43.594;24.334;2023-07-13T01:16:56;14.48;;;12.80;;
57599;SDS011;43426;43.594;24.334;2023-07-13T01:19:44;14.30;;;12.57;;
57599;SDS011;43426;43.594;24.334;2023-07-13T01:22:16;16.88;;;13.45;;
57599;SDS011;43426;43.594;24.334;2023-07-13T01:24:53;14.70;;;13.18;;
57599;SDS011;43426;43.594;24.334;2023-07-13T01:27:25;16.38;;;13.32;;
57599;SDS011;43426;43.594;24.334;2023-07-13T01:29:58;14.30;;;13.02;;
57599;SDS011;43426;43.594;24.334;2023-07-13T01:32:28;17.30;;;14.02;;
57599;SDS011;43426;43.594;24.334;2023-07-13T01:34:57;15.98;;;14.27;;
57599;SDS011;43426;43.594;24.334;2023-07-13T01:37:24;18.13;;;13.80;;
57599;SDS011;43426;43.594;24.334;2023-07-13T01:39:50;15.25;;;13.45;;
57599;SDS011;43426;43.594;24.334;2023-07-13T01:42:25;18.90;;;14.10;;
57599;SDS011;43426;43.594;24.334;2023-07-13T01:44:56;18.73;;;14.65;;
57599;SDS011;43426;43.594;24.334;2023-07-13T01:47:24;19.90;;;14.18;;
57599;SDS011;43426;43.594;24.334;2023-07-13T01:49:51;14.82;;;13.45;;
57599;SDS011;43426;43.594;24.334;2023-07-13T01:52:19;15.77;;;14.38;;
57599;SDS011;43426;43.594;24.334;2023-07-13T01:54:44;16.00;;;13.77;;
57599;SDS011;43426;43.594;24.334;2023-07-13T01:57:12;17.83;;;13.82;;
57599;SDS011;43426;43.594;24.334;2023-07-13T01:59:37;14.38;;;12.98;;
57599;SDS011;43426;43.594;24.334;2023-07-13T02:02:03;15.00;;;13.48;;
57599;SDS011;43426;43.594;24.334;2023-07-13T02:04:37;15.45;;;13.48;;
57599;SDS011;43426;43.594;24.334;2023-07-13T02:07:08;19.48;;;13.80;;
57599;SDS011;43426;43.594;24.334;2023-07-13T02:09:36;15.40;;;13.80;;
57599;SDS011;43426;43.594;24.334;2023-07-13T02:12:02;14.82;;;13.40;;
57599;SDS011;43426;43.594;24.334;2023-07-13T02:14:28;15.32;;;13.82;;
57599;SDS011;43426;43.594;24.334;2023-07-13T02:16:56;13.55;;;12.25;;
57599;SDS011;43426;43.594;24.334;2023-07-13T02:19:27;17.40;;;11.93;;
57599;SDS011;43426;43.594;24.334;2023-07-13T02:21:57;14.20;;;12.05;;
57599;SDS011;43426;43.594;24.334;2023-07-13T02:24:29;13.23;;;11.88;;
57599;SDS011;43426;43.594;24.334;2023-07-13T02:27:00;16.33;;;12.82;;
57599;SDS011;43426;43.594;24.334;2023-07-13T02:29:26;14.05;;;12.63;;
57599;SDS011;43426;43.594;24.334;2023-07-13T02:31:54;19.90;;;13.88;;
57599;SDS011;43426;43.594;24.334;2023-07-13T02:34:28;14.90;;;13.50;;
57599;SDS011;43426;43.594;24.334;2023-07-13T02:36:59;16.92;;;14.15;;
57599;SDS011;43426;43.594;24.334;2023-07-13T02:39:30;14.27;;;12.52;;
57599;SDS011;43426;43.594;24.334;2023-07-13T02:42:04;14.00;;;12.15;;
57599;SDS011;43426;43.594;24.334;2023-07-13T02:44:32;17.92;;;13.90;;
57599;SDS011;43426;43.594;24.334;2023-07-13T02:46:57;17.05;;;15.15;;
57599;SDS011;43426;43.594;24.334;2023-07-13T02:49:30;16.77;;;13.90;;
57599;SDS011;43426;43.594;24.334;2023-07-13T02:51:56;16.50;;;14.50;;
57599;SDS011;43426;43.594;24.334;2023-07-13T02:54:29;14.65;;;13.25;;
57599;SDS011;43426;43.594;24.334;2023-07-13T02:56:59;19.08;;;13.70;;
57599;SDS011;43426;43.594;24.334;2023-07-13T02:59:27;19.20;;;13.80;;
57599;SDS011;43426;43.594;24.334;2023-07-13T03:01:55;15.30;;;13.32;;
57599;SDS011;43426;43.594;24.334;2023-07-13T03:04:23;15.93;;;14.35;;
57599;SDS011;43426;43.594;24.334;2023-07-13T03:06:49;21.83;;;14.02;;
57599;SDS011;43426;43.594;24.334;2023-07-13T03:09:23;16.38;;;14.68;;
57599;SDS011;43426;43.594;24.334;2023-07-13T03:11:49;18.25;;;14.68;;
57599;SDS011;43426;43.594;24.334;2023-07-13T03:14:14;17.08;;;15.27;;
57599;SDS011;43426;43.594;24.334;2023-07-13T03:16:42;17.88;;;16.15;;
57599;SDS011;43426;43.594;24.334;2023-07-13T03:19:10;17.52;;;15.80;;
57599;SDS011;43426;43.594;24.334;2023-07-13T03:21:35;22.20;;;17.02;;
57599;SDS011;43426;43.594;24.334;2023-07-13T03:24:03;16.48;;;15.02;;
57599;SDS011;43426;43.594;24.334;2023-07-13T03:26:28;17.92;;;15.60;;
57599;SDS011;43426;43.594;24.334;2023-07-13T03:28:54;18.95;;;15.95;;
57599;SDS011;43426;43.594;24.334;2023-07-13T03:31:20;20.63;;;16.20;;
57599;SDS011;43426;43.594;24.334;2023-07-13T03:33:48;18.13;;;16.17;;
57599;SDS011;43426;43.594;24.334;2023-07-13T03:36:16;20.58;;;16.27;;
57599;SDS011;43426;43.594;24.334;2023-07-13T03:38:52;18.52;;;16.23;;
57599;SDS011;43426;43.594;24.334;2023-07-13T03:41:25;18.70;;;16.08;;
57599;SDS011;43426;43.594;24.334;2023-07-13T03:43:53;17.40;;;15.57;;
57599;SDS011;43426;43.594;24.334;2023-07-13T03:46:20;17.33;;;14.77;;
57599;SDS011;43426;43.594;24.334;2023-07-13T03:48:51;17.20;;;15.15;;
57599;SDS011;43426;43.594;24.334;2023-07-13T03:51:17;20.73;;;14.68;;
57599;SDS011;43426;43.594;24.334;2023-07-13T03:53:43;15.95;;;14.30;;
57599;SDS011;43426;43.594;24.334;2023-07-13T03:56:11;19.63;;;15.50;;
57599;SDS011;43426;43.594;24.334;2023-07-13T03:58:41;16.83;;;14.40;;
57599;SDS011;43426;43.594;24.334;2023-07-13T04:01:10;18.85;;;15.07;;
57599;SDS011;43426;43.594;24.334;2023-07-13T04:03:37;19.83;;;15.88;;
57599;SDS011;43426;43.594;24.334;2023-07-13T04:06:03;16.88;;;15.25;;
57599;SDS011;43426;43.594;24.334;2023-07-13T04:08:33;17.50;;;15.02;;
57599;SDS011;43426;43.594;24.334;2023-07-13T04:11:01;17.40;;;15.32;;
57599;SDS011;43426;43.594;24.334;2023-07-13T04:13:28;16.95;;;15.32;;
57599;SDS011;43426;43.594;24.334;2023-07-13T04:15:57;17.70;;;15.82;;
57599;SDS011;43426;43.594;24.334;2023-07-13T04:18:22;15.98;;;14.23;;
57599;SDS011;43426;43.594;24.334;2023-07-13T04:20:50;17.63;;;15.80;;
57599;SDS011;43426;43.594;24.334;2023-07-13T04:23:18;16.83;;;15.13;;
57599;SDS011;43426;43.594;24.334;2023-07-13T04:25:45;16.92;;;15.32;;
57599;SDS011;43426;43.594;24.334;2023-07-13T04:28:11;16.88;;;15.07;;
57599;SDS011;43426;43.594;24.334;2023-07-13T04:30:37;16.27;;;14.57;;
57599;SDS011;43426;43.594;24.334;2023-07-13T04:33:02;18.13;;;13.88;;
57599;SDS011;43426;43.594;24.334;2023-07-13T04:35:29;17.67;;;14.35;;
57599;SDS011;43426;43.594;24.334;2023-07-13T04:37:57;16.70;;;14.20;;
57599;SDS011;43426;43.594;24.334;2023-07-13T04:40:23;14.10;;;12.80;;
57599;SDS011;43426;43.594;24.334;2023-07-13T04:42:51;12.80;;;11.70;;
57599;SDS011;43426;43.594;24.334;2023-07-13T04:45:24;15.73;;;13.10;;
57599;SDS011;43426;43.594;24.334;2023-07-13T04:47:53;14.15;;;12.75;;
57599;SDS011;43426;43.594;24.334;2023-07-13T04:50:20;14.60;;;11.75;;
57599;SDS011;43426;43.594;24.334;2023-07-13T04:52:50;32.38;;;15.00;;
57599;SDS011;43426;43.594;24.334;2023-07-13T04:55:18;32.08;;;21.58;;
57599;SDS011;43426;43.594;24.334;2023-07-13T04:57:47;137.02;;;92.25;;
57599;SDS011;43426;43.594;24.334;2023-07-13T05:00:16;239.48;;;118.88;;
57599;SDS011;43426;43.594;24.334;2023-07-13T05:02:44;149.52;;;92.10;;
57599;SDS011;43426;43.594;24.334;2023-07-13T05:05:15;174.00;;;78.82;;
57599;SDS011;43426;43.594;24.334;2023-07-13T05:07:43;77.68;;;39.22;;
57599;SDS011;43426;43.594;24.334;2023-07-13T05:10:08;40.95;;;26.23;;
57599;SDS011;43426;43.594;24.334;2023-07-13T05:12:34;18.15;;;12.85;;
57599;SDS011;43426;43.594;24.334;2023-07-13T05:15:05;15.48;;;11.23;;
57599;SDS011;43426;43.594;24.334;2023-07-13T05:17:33;14.20;;;10.05;;
57599;SDS011;43426;43.594;24.334;2023-07-13T05:20:04;13.52;;;9.77;;
57599;SDS011;43426;43.594;24.334;2023-07-13T05:22:33;8.35;;;7.65;;
57599;SDS011;43426;43.594;24.334;2023-07-13T05:25:04;8.32;;;7.53;;
57599;SDS011;43426;43.594;24.334;2023-07-13T05:27:33;11.25;;;7.88;;
57599;SDS011;43426;43.594;24.334;2023-07-13T05:29:59;8.07;;;7.40;;
57599;SDS011;43426;43.594;24.334;2023-07-13T05:32:25;7.80;;;7.10;;
57599;SDS011;43426;43.594;24.334;2023-07-13T05:34:52;9.15;;;7.50;;
57599;SDS011;43426;43.594;24.334;2023-07-13T05:37:20;8.52;;;7.70;;
57599;SDS011;43426;43.594;24.334;2023-07-13T05:39:45;10.80;;;7.85;;
57599;SDS011;43426;43.594;24.334;2023-07-13T05:42:11;9.90;;;8.38;;
57599;SDS011;43426;43.594;24.334;2023-07-13T05:44:39;10.63;;;8.27;;
57599;SDS011;43426;43.594;24.334;2023-07-13T05:47:07;8.38;;;7.57;;
57599;SDS011;43426;43.594;24.334;2023-07-13T05:49:33;8.65;;;7.68;;
57599;SDS011;43426;43.594;24.334;2023-07-13T05:51:58;7.93;;;7.28;;
57599;SDS011;43426;43.594;24.334;2023-07-13T05:54:28;8.23;;;7.22;;
57599;SDS011;43426;43.594;24.334;2023-07-13T05:56:57;10.60;;;7.35;;
57599;SDS011;43426;43.594;24.334;2023-07-13T05:59:25;7.63;;;6.93;;
57599;SDS011;43426;43.594;24.334;2023-07-13T06:01:50;8.07;;;7.47;;
57599;SDS011;43426;43.594;24.334;2023-07-13T06:04:17;8.65;;;7.95;;
57599;SDS011;43426;43.594;24.334;2023-07-13T06:06:43;8.10;;;7.32;;
57599;SDS011;43426;43.594;24.334;2023-07-13T06:09:11;7.88;;;7.00;;
57599;SDS011;43426;43.594;24.334;2023-07-13T06:11:38;8.90;;;7.50;;
57599;SDS011;43426;43.594;24.334;2023-07-13T06:14:09;9.27;;;7.55;;
57599;SDS011;43426;43.594;24.334;2023-07-13T06:16:35;7.68;;;7.00;;
57599;SDS011;43426;43.594;24.334;2023-07-13T06:19:04;7.80;;;7.03;;
57599;SDS011;43426;43.594;24.334;2023-07-13T06:21:29;8.23;;;7.43;;
57599;SDS011;43426;43.594;24.334;2023-07-13T06:24:00;8.35;;;7.10;;
57599;SDS011;43426;43.594;24.334;2023-07-13T06:26:30;7.55;;;6.63;;
57599;SDS011;43426;43.594;24.334;2023-07-13T06:28:58;9.13;;;7.80;;
57599;SDS011;43426;43.594;24.334;2023-07-13T06:31:23;8.15;;;7.38;;
57599;SDS011;43426;43.594;24.334;2023-07-13T06:33:51;7.90;;;7.25;;
57599;SDS011;43426;43.594;24.334;2023-07-13T06:36:19;7.88;;;7.07;;
57599;SDS011;43426;43.594;24.334;2023-07-13T06:38:48;11.50;;;7.65;;
57599;SDS011;43426;43.594;24.334;2023-07-13T06:41:19;7.53;;;6.82;;
57599;SDS011;43426;43.594;24.334;2023-07-13T06:43:45;7.90;;;7.05;;
57599;SDS011;43426;43.594;24.334;2023-07-13T06:46:10;8.38;;;7.78;;
57599;SDS011;43426;43.594;24.334;2023-07-13T06:48:42;7.90;;;7.07;;
57599;SDS011;43426;43.594;24.334;2023-07-13T06:51:09;7.30;;;6.70;;
57599;SDS011;43426;43.594;24.334;2023-07-13T06:53:34;7.00;;;6.40;;
57599;SDS011;43426;43.594;24.334;2023-07-13T06:56:00;10.23;;;7.18;;
57599;SDS011;43426;43.594;24.334;2023-07-13T06:58:31;7.63;;;6.97;;
57599;SDS011;43426;43.594;24.334;2023-07-13T07:01:01;7.47;;;6.80;;
57599;SDS011;43426;43.594;24.334;2023-07-13T07:03:33;8.15;;;7.20;;
57599;SDS011;43426;43.594;24.334;2023-07-13T07:06:06;8.27;;;7.50;;
57599;SDS011;43426;43.594;24.334;2023-07-13T07:08:34;7.72;;;6.82;;
57599;SDS011;43426;43.594;24.334;2023-07-13T07:11:00;8.15;;;6.57;;
57599;SDS011;43426;43.594;24.334;2023-07-13T07:13:27;6.88;;;6.20;;
57599;SDS011;43426;43.594;24.334;2023-07-13T07:15:58;6.90;;;6.18;;
57599;SDS011;43426;43.594;24.334;2023-07-13T07:18:27;6.22;;;5.75;;
57599;SDS011;43426;43.594;24.334;2023-07-13T07:20:55;6.93;;;6.43;;
57599;SDS011;43426;43.594;24.334;2023-07-13T07:23:24;6.00;;;5.45;;
57599;SDS011;43426;43.594;24.334;2023-07-13T07:25:56;5.82;;;5.32;;
57599;SDS011;43426;43.594;24.334;2023-07-13T07:28:23;6.50;;;5.95;;
57599;SDS011;43426;43.594;24.334;2023-07-13T07:30:51;7.18;;;6.65;;
57599;SDS011;43426;43.594;24.334;2023-07-13T07:33:26;6.75;;;6.07;;
57599;SDS011;43426;43.594;24.334;2023-07-13T07:35:54;9.48;;;5.95;;
57599;SDS011;43426;43.594;24.334;2023-07-13T07:38:25;6.85;;;6.25;;
57599;SDS011;43426;43.594;24.334;2023-07-13T07:40:50;31.08;;;9.15;;
57599;SDS011;43426;43.594;24.334;2023-07-13T07:43:18;9.05;;;6.15;;
57599;SDS011;43426;43.594;24.334;2023-07-13T07:45:46;9.52;;;6.30;;
57599;SDS011;43426;43.594;24.334;2023-07-13T07:48:12;9.70;;;6.00;;
57599;SDS011;43426;43.594;24.334;2023-07-13T07:50:38;6.93;;;5.35;;
57599;SDS011;43426;43.594;24.334;2023-07-13T07:53:08;10.52;;;5.90;;
57599;SDS011;43426;43.594;24.334;2023-07-13T07:55:35;7.50;;;5.20;;
57599;SDS011;43426;43.594;24.334;2023-07-13T07:58:06;5.82;;;4.85;;
57599;SDS011;43426;43.594;24.334;2023-07-13T08:00:40;8.23;;;5.30;;
57599;SDS011;43426;43.594;24.334;2023-07-13T08:03:06;6.38;;;5.57;;
57599;SDS011;43426;43.594;24.334;2023-07-13T08:05:36;7.78;;;5.20;;
57599;SDS011;43426;43.594;24.334;2023-07-13T08:08:04;6.75;;;5.53;;
57599;SDS011;43426;43.594;24.334;2023-07-13T08:10:34;6.07;;;5.40;;
57599;SDS011;43426;43.594;24.334;2023-07-13T08:13:08;5.55;;;4.70;;
57599;SDS011;43426;43.594;24.334;2023-07-13T08:15:36;5.25;;;4.85;;
57599;SDS011;43426;43.594;24.334;2023-07-13T08:18:05;5.38;;;4.97;;
57599;SDS011;43426;43.594;24.334;2023-07-13T08:20:36;7.45;;;4.78;;
57599;SDS011;43426;43.594;24.334;2023-07-13T08:23:05;6.05;;;5.10;;
57599;SDS011;43426;43.594;24.334;2023-07-13T08:25:34;5.22;;;4.72;;
57599;SDS011;43426;43.594;24.334;2023-07-13T08:28:04;5.40;;;4.90;;
57599;SDS011;43426;43.594;24.334;2023-07-13T08:30:33;5.20;;;4.65;;
57599;SDS011;43426;43.594;24.334;2023-07-13T08:33:06;6.10;;;4.40;;
57599;SDS011;43426;43.594;24.334;2023-07-13T08:35:37;5.07;;;4.30;;
57599;SDS011;43426;43.594;24.334;2023-07-13T08:38:10;4.82;;;4.32;;
57599;SDS011;43426;43.594;24.334;2023-07-13T08:40:40;7.13;;;5.22;;
57599;SDS011;43426;43.594;24.334;2023-07-13T08:43:09;5.03;;;4.65;;
57599;SDS011;43426;43.594;24.334;2023-07-13T08:45:45;4.03;;;3.50;;
57599;SDS011;43426;43.594;24.334;2023-07-13T08:50:51;6.00;;;4.18;;
57599;SDS011;43426;43.594;24.334;2023-07-13T08:53:26;5.80;;;4.03;;
57599;SDS011;43426;43.594;24.334;2023-07-13T08:56:01;4.63;;;4.22;;
57599;SDS011;43426;43.594;24.334;2023-07-13T08:58:27;6.25;;;3.60;;
57599;SDS011;43426;43.594;24.334;2023-07-13T09:03:36;3.83;;;3.53;;
57599;SDS011;43426;43.594;24.334;2023-07-13T09:06:15;5.93;;;4.20;;
57599;SDS011;43426;43.594;24.334;2023-07-13T09:08:50;8.00;;;3.10;;
57599;SDS011;43426;43.594;24.334;2023-07-13T09:17:30;3.40;;;3.05;;
57599;SDS011;43426;43.594;24.334;2023-07-13T09:20:04;4.65;;;3.15;;
57599;SDS011;43426;43.594;24.334;2023-07-13T09:22:54;8.32;;;3.63;;
57599;SDS011;43426;43.594;24.334;2023-07-13T09:27:52;4.28;;;3.20;;
57599;SDS011;43426;43.594;24.334;2023-07-13T09:30:28;3.65;;;3.25;;
57599;SDS011;43426;43.594;24.334;2023-07-13T09:32:59;6.38;;;3.35;;
57599;SDS011;43426;43.594;24.334;2023-07-13T09:35:28;6.82;;;3.00;;
57599;SDS011;43426;43.594;24.334;2023-07-13T09:37:59;5.93;;;2.97;;
57599;SDS011;43426;43.594;24.334;2023-07-13T09:43:27;24.60;;;4.40;;
57599;SDS011;43426;43.594;24.334;2023-07-13T09:46:01;4.45;;;3.47;;
57599;SDS011;43426;43.594;24.334;2023-07-13T09:48:32;5.38;;;3.20;;
57599;SDS011;43426;43.594;24.334;2023-07-13T09:51:15;7.25;;;3.13;;
57599;SDS011;43426;43.594;24.334;2023-07-13T09:53:41;7.43;;;3.40;;
57599;SDS011;43426;43.594;24.334;2023-07-13T09:56:24;3.38;;;3.00;;
57599;SDS011;43426;43.594;24.334;2023-07-13T09:58:57;5.72;;;3.35;;
57599;SDS011;43426;43.594;24.334;2023-07-13T10:01:31;4.00;;;3.60;;
57599;SDS011;43426;43.594;24.334;2023-07-13T10:03:58;3.88;;;3.13;;
57599;SDS011;43426;43.594;24.334;2023-07-13T10:06:24;4.47;;;3.25;;
57599;SDS011;43426;43.594;24.334;2023-07-13T10:08:56;4.65;;;3.55;;
57599;SDS011;43426;43.594;24.334;2023-07-13T10:11:28;6.15;;;3.17;;
57599;SDS011;43426;43.594;24.334;2023-07-13T10:16:31;4.32;;;3.08;;
57599;SDS011;43426;43.594;24.334;2023-07-13T10:19:34;5.18;;;3.42;;
57599;SDS011;43426;43.594;24.334;2023-07-13T10:22:04;3.70;;;3.25;;
57599;SDS011;43426;43.594;24.334;2023-07-13T10:24:38;5.97;;;3.10;;
57599;SDS011;43426;43.594;24.334;2023-07-13T10:27:20;8.27;;;4.38;;
57599;SDS011;43426;43.594;24.334;2023-07-13T10:32:40;6.15;;;3.05;;
57599;SDS011;43426;43.594;24.334;2023-07-13T10:35:14;4.60;;;3.25;;
57599;SDS011;43426;43.594;24.334;2023-07-13T10:37:57;4.28;;;3.08;;
57599;SDS011;43426;43.594;24.334;2023-07-13T10:40:36;4.95;;;2.88;;
57599;SDS011;43426;43.594;24.334;2023-07-13T10:43:28;5.68;;;3.40;;
57599;SDS011;43426;43.594;24.334;2023-07-13T10:46:01;5.00;;;3.13;;
57599;SDS011;43426;43.594;24.334;2023-07-13T10:48:30;3.50;;;3.00;;
57599;SDS011;43426;43.594;24.334;2023-07-13T10:51:01;3.63;;;3.20;;
57599;SDS011;43426;43.594;24.334;2023-07-13T10:53:35;4.03;;;3.47;;
57599;SDS011;43426;43.594;24.334;2023-07-13T10:56:24;5.13;;;3.17;;
57599;SDS011;43426;43.594;24.334;2023-07-13T11:04:14;5.30;;;3.22;;
57599;SDS011;43426;43.594;24.334;2023-07-13T11:06:40;8.07;;;2.72;;
57599;SDS011;43426;43.594;24.334;2023-07-13T11:11:59;4.05;;;2.45;;
57599;SDS011;43426;43.594;24.334;2023-07-13T11:14:37;3.90;;;2.80;;
57599;SDS011;43426;43.594;24.334;2023-07-13T11:19:51;2.97;;;2.60;;
57599;SDS011;43426;43.594;24.334;2023-07-13T11:22:24;2.95;;;2.75;;
57599;SDS011;43426;43.594;24.334;2023-07-13T11:25:24;6.70;;;2.70;;
57599;SDS011;43426;43.594;24.334;2023-07-13T11:33:13;3.72;;;2.75;;
57599;SDS011;43426;43.594;24.334;2023-07-13T11:36:06;4.60;;;3.10;;
57599;SDS011;43426;43.594;24.334;2023-07-13T11:38:33;3.83;;;2.65;;
57599;SDS011;43426;43.594;24.334;2023-07-13T11:41:01;5.03;;;2.80;;
57599;SDS011;43426;43.594;24.334;2023-07-13T11:43:29;3.20;;;2.97;;
57599;SDS011;43426;43.594;24.334;2023-07-13T11:45:55;4.93;;;2.80;;
57599;SDS011;43426;43.594;24.334;2023-07-13T11:48:27;4.47;;;4.07;;
57599;SDS011;43426;43.594;24.334;2023-07-13T11:53:30;3.70;;;2.85;;
57599;SDS011;43426;43.594;24.334;2023-07-13T11:56:04;4.72;;;2.60;;
57599;SDS011;43426;43.594;24.334;2023-07-13T11:58:35;2.55;;;2.35;;
57599;SDS011;43426;43.594;24.334;2023-07-13T12:01:03;4.88;;;2.50;;
57599;SDS011;43426;43.594;24.334;2023-07-13T12:03:34;3.65;;;2.58;;
57599;SDS011;43426;43.594;24.334;2023-07-13T12:06:19;4.55;;;2.90;;
57599;SDS011;43426;43.594;24.334;2023-07-13T12:08:50;4.05;;;2.97;;
57599;SDS011;43426;43.594;24.334;2023-07-13T12:11:16;2.80;;;2.60;;
57599;SDS011;43426;43.594;24.334;2023-07-13T12:13:44;2.92;;;2.28;;
57599;SDS011;43426;43.594;24.334;2023-07-13T12:20:27;3.63;;;2.72;;
57599;SDS011;43426;43.594;24.334;2023-07-13T12:22:58;7.35;;;2.92;;
57599;SDS011;43426;43.594;24.334;2023-07-13T12:25:24;3.22;;;2.92;;
57599;SDS011;43426;43.594;24.334;2023-07-13T12:27:50;3.22;;;2.75;;
57599;SDS011;43426;43.594;24.334;2023-07-13T12:30:32;3.75;;;2.75;;
57599;SDS011;43426;43.594;24.334;2023-07-13T12:33:02;4.15;;;2.97;;
57599;SDS011;43426;43.594;24.334;2023-07-13T12:38:07;4.20;;;3.25;;
57599;SDS011;43426;43.594;24.334;2023-07-13T12:40:35;3.00;;;2.75;;
57599;SDS011;43426;43.594;24.334;2023-07-13T12:43:02;4.53;;;3.42;;
57599;SDS011;43426;43.594;24.334;2023-07-13T12:45:32;3.17;;;2.85;;
57599;SDS011;43426;43.594;24.334;2023-07-13T12:47:59;3.83;;;2.95;;
57599;SDS011;43426;43.594;24.334;2023-07-13T12:50:40;3.25;;;2.95;;
57599;SDS011;43426;43.594;24.334;2023-07-13T12:53:28;9.98;;;3.42;;
57599;SDS011;43426;43.594;24.334;2023-07-13T12:55:56;2.72;;;2.45;;
57599;SDS011;43426;43.594;24.334;2023-07-13T13:01:10;5.95;;;2.97;;
57599;SDS011;43426;43.594;24.334;2023-07-13T13:03:38;4.05;;;3.10;;
57599;SDS011;43426;43.594;24.334;2023-07-13T13:08:40;4.07;;;2.75;;
57599;SDS011;43426;43.594;24.334;2023-07-13T13:11:08;2.85;;;2.65;;
57599;SDS011;43426;43.594;24.334;2023-07-13T13:13:34;6.45;;;3.00;;
57599;SDS011;43426;43.594;24.334;2023-07-13T13:18:40;6.25;;;2.72;;
57599;SDS011;43426;43.594;24.334;2023-07-13T13:21:06;3.38;;;2.90;;
57599;SDS011;43426;43.594;24.334;2023-07-13T13:23:32;3.25;;;2.78;;
57599;SDS011;43426;43.594;24.334;2023-07-13T13:25:57;4.35;;;2.78;;
57599;SDS011;43426;43.594;24.334;2023-07-13T13:28:23;3.33;;;3.03;;
57599;SDS011;43426;43.594;24.334;2023-07-13T13:30:51;3.38;;;3.08;;
57599;SDS011;43426;43.594;24.334;2023-07-13T13:33:18;3.60;;;2.85;;
57599;SDS011;43426;43.594;24.334;2023-07-13T13:35:45;6.28;;;2.63;;
57599;SDS011;43426;43.594;24.334;2023-07-13T13:40:37;8.18;;;2.97;;
57599;SDS011;43426;43.594;24.334;2023-07-13T13:43:04;7.18;;;3.08;;
57599;SDS011;43426;43.594;24.334;2023-07-13T13:45:39;4.22;;;2.83;;
57599;SDS011;43426;43.594;24.334;2023-07-13T13:48:05;10.02;;;3.00;;
57599;SDS011;43426;43.594;24.334;2023-07-13T13:50:30;5.20;;;3.30;;
57599;SDS011;43426;43.594;24.334;2023-07-13T13:52:56;3.20;;;2.90;;
57599;SDS011;43426;43.594;24.334;2023-07-13T13:55:21;3.10;;;2.80;;
57599;SDS011;43426;43.594;24.334;2023-07-13T13:57:49;4.88;;;3.05;;
57599;SDS011;43426;43.594;24.334;2023-07-13T14:00:15;5.45;;;2.88;;
57599;SDS011;43426;43.594;24.334;2023-07-13T14:02:42;8.52;;;4.13;;
57599;SDS011;43426;43.594;24.334;2023-07-13T14:05:13;3.45;;;2.80;;
57599;SDS011;43426;43.594;24.334;2023-07-13T14:07:41;2.97;;;2.78;;
57599;SDS011;43426;43.594;24.334;2023-07-13T14:10:12;5.07;;;2.88;;
57599;SDS011;43426;43.594;24.334;2023-07-13T14:12:40;10.75;;;3.90;;
57599;SDS011;43426;43.594;24.334;2023-07-13T14:15:30;5.25;;;3.28;;
57599;SDS011;43426;43.594;24.334;2023-07-13T14:17:57;8.63;;;3.08;;
57599;SDS011;43426;43.594;24.334;2023-07-13T14:20:23;5.53;;;3.00;;
57599;SDS011;43426;43.594;24.334;2023-07-13T14:22:50;3.20;;;2.90;;
57599;SDS011;43426;43.594;24.334;2023-07-13T14:25:17;6.18;;;3.33;;
57599;SDS011;43426;43.594;24.334;2023-07-13T14:27:44;6.00;;;2.65;;
57599;SDS011;43426;43.594;24.334;2023-07-13T14:30:16;3.00;;;2.42;;
57599;SDS011;43426;43.594;24.334;2023-07-13T14:32:42;7.45;;;3.13;;
57599;SDS011;43426;43.594;24.334;2023-07-13T14:35:15;3.05;;;2.80;;
57599;SDS011;43426;43.594;24.334;2023-07-13T14:37:43;6.73;;;2.80;;
57599;SDS011;43426;43.594;24.334;2023-07-13T14:42:38;3.78;;;2.55;;
57599;SDS011;43426;43.594;24.334;2023-07-13T14:45:04;4.60;;;2.95;;
57599;SDS011;43426;43.594;24.334;2023-07-13T14:47:30;5.88;;;3.15;;
57599;SDS011;43426;43.594;24.334;2023-07-13T14:49:56;6.63;;;3.00;;
57599;SDS011;43426;43.594;24.334;2023-07-13T14:52:22;3.08;;;2.75;;
57599;SDS011;43426;43.594;24.334;2023-07-13T14:54:50;3.88;;;3.00;;
57599;SDS011;43426;43.594;24.334;2023-07-13T14:57:18;5.07;;;4.35;;
57599;SDS011;43426;43.594;24.334;2023-07-13T14:59:45;6.60;;;4.05;;
57599;SDS011;43426;43.594;24.334;2023-07-13T15:02:45;8.68;;;3.10;;
57599;SDS011;43426;43.594;24.334;2023-07-13T15:05:08;3.60;;;2.58;;
57599;SDS011;43426;43.594;24.334;2023-07-13T15:07:47;4.10;;;3.20;;
57599;SDS011;43426;43.594;24.334;2023-07-13T15:10:14;5.07;;;2.53;;
57599;SDS011;43426;43.594;24.334;2023-07-13T15:12:41;2.60;;;2.40;;
57599;SDS011;43426;43.594;24.334;2023-07-13T15:15:07;3.75;;;2.97;;
57599;SDS011;43426;43.594;24.334;2023-07-13T15:17:37;7.43;;;3.13;;
57599;SDS011;43426;43.594;24.334;2023-07-13T15:22:51;3.25;;;2.92;;
57599;SDS011;43426;43.594;24.334;2023-07-13T15:25:19;7.57;;;3.03;;
57599;SDS011;43426;43.594;24.334;2023-07-13T15:27:47;3.47;;;3.15;;
57599;SDS011;43426;43.594;24.334;2023-07-13T15:30:13;2.88;;;2.58;;
57599;SDS011;43426;43.594;24.334;2023-07-13T15:32:41;2.95;;;2.72;;
57599;SDS011;43426;43.594;24.334;2023-07-13T15:35:18;6.93;;;2.80;;
57599;SDS011;43426;43.594;24.334;2023-07-13T15:37:45;3.60;;;3.20;;
57599;SDS011;43426;43.594;24.334;2023-07-13T15:40:11;3.08;;;2.30;;